Tuftonboro, NH

9:18 AM EST on January 31, 2015 (GMT -0500)
Sanford Regional | Change Station
CLOSE
Current Station
Airport
Location: Sanford,
Elevation: 243 ft
Nearby Weather Stations

Elev 243 ft 43.39 °N, 70.71 °W | Updated 3 minutes ago

Overcast
Overcast
10 °F
Feels Like -7 °F
N
17
Wind Variable Wind from WNW
Gusts 24 mph

Today
High -- | Low -- °F
--% Chance of Precip.
Yesterday
High -- | Low -- °F
Precip. -- in
7:02 AM 4:53 PM
Waxing Gibbous, 90% visible
Pressure 29.77 in
Visibility 5.0 miles
Clouds Clear
Windchill -7 °F
Dew Point -2 °F
Humidity 57%
Rainfall 0.00 in
Snow Depth Not available.
UV 1 out of 12
Pollen .10 out of 12
Air Quality Not available.
Flu Activity Not available.
METAR KSFM 311415Z AUTO 30015G21KT 5SM CLR M12/M19 A2977 RMK AO1

More Conditions Fewer Conditions

Pressure 29.77 in
Visibility 5.0 miles
Clouds Clear
Windchill -7 °F
Dew Point -2 °F
Humidity 57%
Rainfall 0.00 in
Snow Depth Not available.
UV 1 out of 12
Pollen .10 out of 12
Air Quality Not available.
Flu Activity Not available.
METAR KSFM 311415Z AUTO 30015G21KT 5SM CLR M12/M19 A2977 RMK AO1

More Conditions Fewer Conditions

10-Day Weather Forecast

Almanac

Astronomy

Jan. 31, 2015 Rise Set
Actual Time
Civil Twilight
Nautical Twilight
Astronomical Twilight
Moon
Length of Visible Light
Length of Day
Tomorrow will be .
, % of the Moon is Illuminated

Today's Extremes

State Highs State Lows

Community

WunderPhotos

Upload Photos

1,792,058 photos uploaded!

WunderBlogs® & News

Nearby

Air Quality

  Air Quality AQ Index Pollutant
Not available.

Snow Depth

Station Depth Elevation

Earthquake Activity

City Distance Mag. Time & Date
Minimum magnitude displayed is 2.5.

Coastal Water Temperatures

Place Temperature

Nearby Weather Stations